Terminal Aerodrome Forecast
Issued by NWS

Home | Current Version | Previous Version | Text Only | Print | Product List | Glossary On
Versions: 1 2 3 4 5 6 7 8 9 10 11 12 13 14 15 16 17
197
FTUS43 KJKL 182322
TAFSME
TAF
KSME 182322Z 1900/1924 00000KT P6SM SCT250
     FM190200 00000KT 3SM BR SCT090
     FM191400 00000KT P6SM BKN090
     FM191600 VRB03KT P6SM VCSH BKN090
     FM192000 12005KT 3SM -SHRA OVC025=

USA.gov is the U.S. government's official web portal to all federal, state and local government web resources and services.